sensor_id;sensor_type;location;lat;lon;timestamp;P1;durP1;ratioP1;P2;durP2;ratioP2
77164;SDS011;66140;50.280;18.660;2023-04-16T05:00:57;28.40;;;14.32;;
77164;SDS011;66140;50.280;18.660;2023-04-16T05:03:23;31.38;;;15.02;;
77164;SDS011;66140;50.280;18.660;2023-04-16T05:05:48;31.05;;;14.23;;
77164;SDS011;66140;50.280;18.660;2023-04-16T05:08:14;29.23;;;14.30;;
77164;SDS011;66140;50.280;18.660;2023-04-16T05:10:40;34.47;;;15.68;;
77164;SDS011;66140;50.280;18.660;2023-04-16T05:13:05;27.53;;;14.27;;
77164;SDS011;66140;50.280;18.660;2023-04-16T05:15:30;30.73;;;15.10;;
77164;SDS011;66140;50.280;18.660;2023-04-16T05:17:56;34.60;;;15.33;;
77164;SDS011;66140;50.280;18.660;2023-04-16T05:20:21;31.15;;;14.98;;
77164;SDS011;66140;50.280;18.660;2023-04-16T05:22:48;28.00;;;13.68;;
77164;SDS011;66140;50.280;18.660;2023-04-16T05:25:14;30.50;;;14.60;;
77164;SDS011;66140;50.280;18.660;2023-04-16T05:27:41;30.58;;;14.88;;
77164;SDS011;66140;50.280;18.660;2023-04-16T05:30:06;31.30;;;15.73;;
77164;SDS011;66140;50.280;18.660;2023-04-16T05:32:32;29.75;;;14.90;;
77164;SDS011;66140;50.280;18.660;2023-04-16T05:34:58;29.37;;;14.73;;
77164;SDS011;66140;50.280;18.660;2023-04-16T05:37:23;28.48;;;15.68;;
77164;SDS011;66140;50.280;18.660;2023-04-16T05:39:48;33.38;;;15.45;;
77164;SDS011;66140;50.280;18.660;2023-04-16T05:42:14;27.35;;;14.93;;
77164;SDS011;66140;50.280;18.660;2023-04-16T05:44:39;28.45;;;15.27;;
77164;SDS011;66140;50.280;18.660;2023-04-16T05:47:05;28.05;;;13.73;;
77164;SDS011;66140;50.280;18.660;2023-04-16T05:49:33;25.83;;;13.40;;
77164;SDS011;66140;50.280;18.660;2023-04-16T05:51:58;28.80;;;14.45;;
77164;SDS011;66140;50.280;18.660;2023-04-16T05:54:24;26.92;;;13.23;;
77164;SDS011;66140;50.280;18.660;2023-04-16T05:56:49;24.88;;;13.77;;
77164;SDS011;66140;50.280;18.660;2023-04-16T05:59:15;21.73;;;13.40;;
77164;SDS011;66140;50.280;18.660;2023-04-16T06:01:40;22.33;;;13.02;;
77164;SDS011;66140;50.280;18.660;2023-04-16T06:04:06;22.35;;;12.23;;
77164;SDS011;66140;50.280;18.660;2023-04-16T06:06:31;23.20;;;13.02;;
77164;SDS011;66140;50.280;18.660;2023-04-16T06:08:57;17.27;;;10.73;;
77164;SDS011;66140;50.280;18.660;2023-04-16T06:11:22;18.00;;;10.50;;
77164;SDS011;66140;50.280;18.660;2023-04-16T06:13:47;15.65;;;9.18;;
77164;SDS011;66140;50.280;18.660;2023-04-16T06:16:13;16.65;;;10.25;;
77164;SDS011;66140;50.280;18.660;2023-04-16T06:18:38;14.90;;;9.65;;
77164;SDS011;66140;50.280;18.660;2023-04-16T06:21:04;16.70;;;9.93;;
77164;SDS011;66140;50.280;18.660;2023-04-16T06:23:30;15.48;;;10.07;;
77164;SDS011;66140;50.280;18.660;2023-04-16T06:25:55;13.15;;;8.73;;
77164;SDS011;66140;50.280;18.660;2023-04-16T06:28:20;14.10;;;9.55;;
77164;SDS011;66140;50.280;18.660;2023-04-16T06:30:46;15.48;;;9.60;;
77164;SDS011;66140;50.280;18.660;2023-04-16T06:33:11;12.70;;;8.63;;
77164;SDS011;66140;50.280;18.660;2023-04-16T06:35:37;11.73;;;6.32;;
77164;SDS011;66140;50.280;18.660;2023-04-16T06:38:02;10.95;;;6.70;;
77164;SDS011;66140;50.280;18.660;2023-04-16T06:40:28;10.57;;;6.75;;
77164;SDS011;66140;50.280;18.660;2023-04-16T06:42:54;10.25;;;7.05;;
77164;SDS011;66140;50.280;18.660;2023-04-16T06:45:20;10.55;;;7.53;;
77164;SDS011;66140;50.280;18.660;2023-04-16T06:47:45;11.05;;;7.15;;
77164;SDS011;66140;50.280;18.660;2023-04-16T06:50:12;12.60;;;7.53;;
77164;SDS011;66140;50.280;18.660;2023-04-16T06:52:37;11.02;;;7.65;;
77164;SDS011;66140;50.280;18.660;2023-04-16T06:55:03;9.65;;;7.05;;
77164;SDS011;66140;50.280;18.660;2023-04-16T06:57:28;8.45;;;5.97;;
77164;SDS011;66140;50.280;18.660;2023-04-16T06:59:54;9.68;;;6.72;;
77164;SDS011;66140;50.280;18.660;2023-04-16T07:02:19;8.10;;;5.82;;
77164;SDS011;66140;50.280;18.660;2023-04-16T07:04:45;8.95;;;6.07;;
77164;SDS011;66140;50.280;18.660;2023-04-16T07:07:10;9.68;;;6.45;;
77164;SDS011;66140;50.280;18.660;2023-04-16T07:09:37;9.57;;;6.40;;
77164;SDS011;66140;50.280;18.660;2023-04-16T07:12:02;11.52;;;7.80;;
77164;SDS011;66140;50.280;18.660;2023-04-16T07:14:28;12.23;;;8.65;;
77164;SDS011;66140;50.280;18.660;2023-04-16T07:16:53;12.93;;;9.30;;
77164;SDS011;66140;50.280;18.660;2023-04-16T07:19:19;14.63;;;8.17;;
77164;SDS011;66140;50.280;18.660;2023-04-16T07:21:46;12.38;;;8.90;;
77164;SDS011;66140;50.280;18.660;2023-04-16T07:24:12;16.80;;;10.25;;
77164;SDS011;66140;50.280;18.660;2023-04-16T07:26:37;15.23;;;9.88;;
77164;SDS011;66140;50.280;18.660;2023-04-16T07:29:03;13.23;;;10.30;;
77164;SDS011;66140;50.280;18.660;2023-04-16T07:31:28;15.57;;;10.48;;
77164;SDS011;66140;50.280;18.660;2023-04-16T07:33:54;15.82;;;10.55;;
77164;SDS011;66140;50.280;18.660;2023-04-16T07:36:19;12.25;;;8.50;;
77164;SDS011;66140;50.280;18.660;2023-04-16T07:38:45;13.95;;;9.35;;
77164;SDS011;66140;50.280;18.660;2023-04-16T07:41:10;12.05;;;8.35;;
77164;SDS011;66140;50.280;18.660;2023-04-16T07:43:36;13.50;;;9.52;;
77164;SDS011;66140;50.280;18.660;2023-04-16T07:46:05;13.77;;;9.40;;
77164;SDS011;66140;50.280;18.660;2023-04-16T07:48:30;17.25;;;8.98;;
77164;SDS011;66140;50.280;18.660;2023-04-16T07:50:56;12.27;;;8.07;;
77164;SDS011;66140;50.280;18.660;2023-04-16T07:53:22;11.65;;;7.90;;
77164;SDS011;66140;50.280;18.660;2023-04-16T07:55:49;8.70;;;6.13;;
77164;SDS011;66140;50.280;18.660;2023-04-16T07:58:15;9.82;;;7.68;;
77164;SDS011;66140;50.280;18.660;2023-04-16T08:00:40;8.33;;;5.83;;
77164;SDS011;66140;50.280;18.660;2023-04-16T08:03:06;7.68;;;5.32;;
77164;SDS011;66140;50.280;18.660;2023-04-16T08:05:31;6.53;;;4.63;;
77164;SDS011;66140;50.280;18.660;2023-04-16T08:07:56;8.02;;;5.07;;
77164;SDS011;66140;50.280;18.660;2023-04-16T08:10:22;6.70;;;4.43;;
77164;SDS011;66140;50.280;18.660;2023-04-16T08:12:47;8.60;;;4.85;;
77164;SDS011;66140;50.280;18.660;2023-04-16T08:15:13;7.25;;;4.45;;
77164;SDS011;66140;50.280;18.660;2023-04-16T08:17:38;5.60;;;4.93;;
77164;SDS011;66140;50.280;18.660;2023-04-16T08:20:04;6.18;;;3.90;;
77164;SDS011;66140;50.280;18.660;2023-04-16T08:22:31;6.20;;;4.40;;
77164;SDS011;66140;50.280;18.660;2023-04-16T08:24:57;6.80;;;3.70;;
77164;SDS011;66140;50.280;18.660;2023-04-16T08:27:22;5.65;;;3.85;;
77164;SDS011;66140;50.280;18.660;2023-04-16T08:29:47;5.87;;;5.00;;
77164;SDS011;66140;50.280;18.660;2023-04-16T08:32:13;7.13;;;5.22;;
77164;SDS011;66140;50.280;18.660;2023-04-16T08:34:38;7.53;;;4.78;;
77164;SDS011;66140;50.280;18.660;2023-04-16T08:37:04;6.28;;;5.15;;
77164;SDS011;66140;50.280;18.660;2023-04-16T08:39:29;8.37;;;4.97;;
77164;SDS011;66140;50.280;18.660;2023-04-16T08:41:55;7.07;;;5.10;;
77164;SDS011;66140;50.280;18.660;2023-04-16T08:44:26;8.35;;;5.15;;
77164;SDS011;66140;50.280;18.660;2023-04-16T08:46:53;5.55;;;4.57;;
77164;SDS011;66140;50.280;18.660;2023-04-16T08:49:23;5.80;;;4.13;;
77164;SDS011;66140;50.280;18.660;2023-04-16T08:51:53;8.60;;;5.20;;
77164;SDS011;66140;50.280;18.660;2023-04-16T08:57:00;6.65;;;4.93;;
77164;SDS011;66140;50.280;18.660;2023-04-16T08:59:29;6.65;;;4.65;;
77164;SDS011;66140;50.280;18.660;2023-04-16T09:01:56;6.35;;;5.00;;
77164;SDS011;66140;50.280;18.660;2023-04-16T09:04:24;5.72;;;4.65;;
77164;SDS011;66140;50.280;18.660;2023-04-16T09:06:52;6.13;;;5.05;;
77164;SDS011;66140;50.280;18.660;2023-04-16T09:09:20;5.45;;;4.88;;
77164;SDS011;66140;50.280;18.660;2023-04-16T09:11:49;6.50;;;4.25;;
77164;SDS011;66140;50.280;18.660;2023-04-16T09:14:15;4.03;;;3.17;;
77164;SDS011;66140;50.280;18.660;2023-04-16T09:16:41;4.50;;;3.17;;
77164;SDS011;66140;50.280;18.660;2023-04-16T09:19:09;4.55;;;3.85;;
77164;SDS011;66140;50.280;18.660;2023-04-16T09:21:35;5.13;;;4.30;;
77164;SDS011;66140;50.280;18.660;2023-04-16T09:24:01;6.78;;;4.60;;
77164;SDS011;66140;50.280;18.660;2023-04-16T09:26:27;6.85;;;4.55;;
77164;SDS011;66140;50.280;18.660;2023-04-16T09:28:52;5.35;;;3.95;;
77164;SDS011;66140;50.280;18.660;2023-04-16T09:31:19;5.53;;;4.18;;
77164;SDS011;66140;50.280;18.660;2023-04-16T09:36:26;4.78;;;3.95;;
77164;SDS011;66140;50.280;18.660;2023-04-16T09:38:52;6.18;;;4.40;;
77164;SDS011;66140;50.280;18.660;2023-04-16T09:41:19;7.18;;;4.00;;
77164;SDS011;66140;50.280;18.660;2023-04-16T09:46:23;5.57;;;4.22;;
77164;SDS011;66140;50.280;18.660;2023-04-16T09:48:53;7.70;;;5.53;;
77164;SDS011;66140;50.280;18.660;2023-04-16T09:51:18;6.03;;;4.80;;
77164;SDS011;66140;50.280;18.660;2023-04-16T09:53:44;8.13;;;5.95;;
77164;SDS011;66140;50.280;18.660;2023-04-16T09:56:10;7.18;;;5.30;;
77164;SDS011;66140;50.280;18.660;2023-04-16T09:58:36;7.65;;;5.18;;
77164;SDS011;66140;50.280;18.660;2023-04-16T10:01:09;6.88;;;5.28;;
77164;SDS011;66140;50.280;18.660;2023-04-16T10:03:36;7.60;;;5.25;;
77164;SDS011;66140;50.280;18.660;2023-04-16T10:06:13;9.85;;;6.20;;
77164;SDS011;66140;50.280;18.660;2023-04-16T10:08:46;9.55;;;5.93;;
77164;SDS011;66140;50.280;18.660;2023-04-16T10:11:16;8.60;;;5.10;;
77164;SDS011;66140;50.280;18.660;2023-04-16T10:13:43;8.43;;;4.88;;
77164;SDS011;66140;50.280;18.660;2023-04-16T10:16:09;7.88;;;4.85;;
77164;SDS011;66140;50.280;18.660;2023-04-16T10:18:39;6.30;;;4.10;;
77164;SDS011;66140;50.280;18.660;2023-04-16T10:21:06;6.38;;;4.45;;
77164;SDS011;66140;50.280;18.660;2023-04-16T10:23:32;5.15;;;4.05;;
77164;SDS011;66140;50.280;18.660;2023-04-16T10:26:01;4.78;;;3.72;;
77164;SDS011;66140;50.280;18.660;2023-04-16T10:28:27;5.60;;;3.92;;
77164;SDS011;66140;50.280;18.660;2023-04-16T10:30:53;5.55;;;4.30;;
77164;SDS011;66140;50.280;18.660;2023-04-16T10:33:22;6.25;;;4.25;;
77164;SDS011;66140;50.280;18.660;2023-04-16T10:35:51;5.18;;;3.97;;
77164;SDS011;66140;50.280;18.660;2023-04-16T10:38:31;6.78;;;4.40;;
77164;SDS011;66140;50.280;18.660;2023-04-16T10:41:03;7.05;;;4.45;;
77164;SDS011;66140;50.280;18.660;2023-04-16T10:43:29;5.22;;;4.13;;
77164;SDS011;66140;50.280;18.660;2023-04-16T10:46:00;5.80;;;3.50;;
77164;SDS011;66140;50.280;18.660;2023-04-16T10:48:42;6.22;;;3.95;;
77164;SDS011;66140;50.280;18.660;2023-04-16T10:51:08;8.18;;;4.15;;
77164;SDS011;66140;50.280;18.660;2023-04-16T10:53:48;4.82;;;3.67;;
77164;SDS011;66140;50.280;18.660;2023-04-16T10:56:24;6.38;;;3.70;;
77164;SDS011;66140;50.280;18.660;2023-04-16T10:58:53;4.95;;;3.55;;
77164;SDS011;66140;50.280;18.660;2023-04-16T11:01:25;5.43;;;3.30;;
77164;SDS011;66140;50.280;18.660;2023-04-16T11:03:59;4.60;;;3.50;;
77164;SDS011;66140;50.280;18.660;2023-04-16T11:06:26;4.65;;;3.60;;
77164;SDS011;66140;50.280;18.660;2023-04-16T11:08:52;4.43;;;3.80;;
77164;SDS011;66140;50.280;18.660;2023-04-16T11:11:18;5.07;;;3.85;;
77164;SDS011;66140;50.280;18.660;2023-04-16T11:13:45;4.70;;;3.65;;
77164;SDS011;66140;50.280;18.660;2023-04-16T11:16:12;5.50;;;3.78;;
77164;SDS011;66140;50.280;18.660;2023-04-16T11:18:38;7.25;;;5.18;;
77164;SDS011;66140;50.280;18.660;2023-04-16T11:21:08;6.43;;;4.00;;
77164;SDS011;66140;50.280;18.660;2023-04-16T11:23:44;4.72;;;3.83;;
77164;SDS011;66140;50.280;18.660;2023-04-16T11:26:26;3.85;;;3.40;;
77164;SDS011;66140;50.280;18.660;2023-04-16T11:28:53;4.82;;;3.40;;
77164;SDS011;66140;50.280;18.660;2023-04-16T11:31:20;4.22;;;3.67;;
77164;SDS011;66140;50.280;18.660;2023-04-16T11:33:47;4.60;;;3.78;;
77164;SDS011;66140;50.280;18.660;2023-04-16T11:36:13;4.00;;;3.13;;
77164;SDS011;66140;50.280;18.660;2023-04-16T11:38:39;4.35;;;3.28;;
77164;SDS011;66140;50.280;18.660;2023-04-16T11:41:08;6.38;;;3.92;;
77164;SDS011;66140;50.280;18.660;2023-04-16T11:43:34;6.35;;;4.00;;
77164;SDS011;66140;50.280;18.660;2023-04-16T11:46:01;5.53;;;4.57;;
77164;SDS011;66140;50.280;18.660;2023-04-16T11:49:10;6.45;;;4.80;;
77164;SDS011;66140;50.280;18.660;2023-04-16T11:51:18;8.98;;;5.57;;
77164;SDS011;66140;50.280;18.660;2023-04-16T11:53:48;7.22;;;4.90;;
77164;SDS011;66140;50.280;18.660;2023-04-16T11:56:26;5.68;;;4.72;;
77164;SDS011;66140;50.280;18.660;2023-04-16T11:59:12;6.80;;;4.20;;
77164;SDS011;66140;50.280;18.660;2023-04-16T12:01:48;8.32;;;5.03;;
77164;SDS011;66140;50.280;18.660;2023-04-16T12:04:15;7.80;;;4.15;;
77164;SDS011;66140;50.280;18.660;2023-04-16T12:07:25;6.65;;;4.47;;
77164;SDS011;66140;50.280;18.660;2023-04-16T12:09:33;5.90;;;4.63;;
77164;SDS011;66140;50.280;18.660;2023-04-16T12:12:00;6.03;;;4.95;;
77164;SDS011;66140;50.280;18.660;2023-04-16T12:14:26;5.53;;;4.47;;
77164;SDS011;66140;50.280;18.660;2023-04-16T12:16:52;5.07;;;3.78;;
77164;SDS011;66140;50.280;18.660;2023-04-16T12:19:17;4.63;;;3.13;;
77164;SDS011;66140;50.280;18.660;2023-04-16T12:21:44;4.60;;;3.40;;
77164;SDS011;66140;50.280;18.660;2023-04-16T12:24:11;4.63;;;3.53;;
77164;SDS011;66140;50.280;18.660;2023-04-16T12:26:45;5.75;;;4.32;;
77164;SDS011;66140;50.280;18.660;2023-04-16T12:31:49;5.80;;;4.10;;
77164;SDS011;66140;50.280;18.660;2023-04-16T12:34:16;5.20;;;3.42;;
77164;SDS011;66140;50.280;18.660;2023-04-16T12:36:47;5.70;;;4.15;;
77164;SDS011;66140;50.280;18.660;2023-04-16T12:39:14;6.38;;;3.92;;
77164;SDS011;66140;50.280;18.660;2023-04-16T12:41:41;5.00;;;3.53;;
77164;SDS011;66140;50.280;18.660;2023-04-16T12:44:11;5.88;;;3.70;;
77164;SDS011;66140;50.280;18.660;2023-04-16T12:46:42;4.22;;;3.55;;
77164;SDS011;66140;50.280;18.660;2023-04-16T12:49:09;4.40;;;3.30;;
77164;SDS011;66140;50.280;18.660;2023-04-16T12:51:35;5.13;;;3.55;;
77164;SDS011;66140;50.280;18.660;2023-04-16T12:54:02;5.47;;;3.95;;
77164;SDS011;66140;50.280;18.660;2023-04-16T12:56:30;4.38;;;3.30;;
77164;SDS011;66140;50.280;18.660;2023-04-16T12:58:55;3.75;;;3.00;;
77164;SDS011;66140;50.280;18.660;2023-04-16T13:01:21;4.07;;;3.22;;
77164;SDS011;66140;50.280;18.660;2023-04-16T13:03:47;4.45;;;3.88;;
77164;SDS011;66140;50.280;18.660;2023-04-16T13:06:13;4.13;;;3.42;;
77164;SDS011;66140;50.280;18.660;2023-04-16T13:08:40;4.65;;;3.47;;
77164;SDS011;66140;50.280;18.660;2023-04-16T13:11:06;5.68;;;3.72;;
77164;SDS011;66140;50.280;18.660;2023-04-16T13:13:31;4.53;;;3.22;;
77164;SDS011;66140;50.280;18.660;2023-04-16T13:15:57;5.43;;;3.85;;
77164;SDS011;66140;50.280;18.660;2023-04-16T13:18:24;5.43;;;3.85;;
77164;SDS011;66140;50.280;18.660;2023-04-16T13:20:50;6.53;;;3.67;;
77164;SDS011;66140;50.280;18.660;2023-04-16T13:23:16;7.07;;;4.50;;
77164;SDS011;66140;50.280;18.660;2023-04-16T13:25:41;6.25;;;3.97;;
77164;SDS011;66140;50.280;18.660;2023-04-16T13:28:07;9.60;;;4.45;;
77164;SDS011;66140;50.280;18.660;2023-04-16T13:30:32;5.20;;;4.10;;
77164;SDS011;66140;50.280;18.660;2023-04-16T13:32:58;5.28;;;3.83;;
77164;SDS011;66140;50.280;18.660;2023-04-16T13:35:23;6.35;;;3.95;;
77164;SDS011;66140;50.280;18.660;2023-04-16T13:37:49;6.10;;;4.85;;
77164;SDS011;66140;50.280;18.660;2023-04-16T13:40:15;5.57;;;3.78;;
77164;SDS011;66140;50.280;18.660;2023-04-16T13:42:40;7.30;;;4.45;;
77164;SDS011;66140;50.280;18.660;2023-04-16T13:45:06;5.00;;;3.50;;
77164;SDS011;66140;50.280;18.660;2023-04-16T13:47:33;5.57;;;3.80;;
77164;SDS011;66140;50.280;18.660;2023-04-16T13:49:59;5.35;;;4.10;;
77164;SDS011;66140;50.280;18.660;2023-04-16T13:52:24;5.53;;;3.90;;
77164;SDS011;66140;50.280;18.660;2023-04-16T13:54:50;8.23;;;4.47;;
77164;SDS011;66140;50.280;18.660;2023-04-16T13:57:16;9.68;;;4.70;;
77164;SDS011;66140;50.280;18.660;2023-04-16T13:59:42;7.28;;;5.32;;
77164;SDS011;66140;50.280;18.660;2023-04-16T14:02:08;5.95;;;4.00;;
77164;SDS011;66140;50.280;18.660;2023-04-16T14:04:34;5.22;;;3.97;;
77164;SDS011;66140;50.280;18.660;2023-04-16T14:07:00;5.47;;;4.20;;
77164;SDS011;66140;50.280;18.660;2023-04-16T14:09:25;5.97;;;4.45;;
77164;SDS011;66140;50.280;18.660;2023-04-16T14:11:52;6.05;;;4.03;;
77164;SDS011;66140;50.280;18.660;2023-04-16T14:14:19;4.65;;;3.63;;
77164;SDS011;66140;50.280;18.660;2023-04-16T14:16:45;5.03;;;3.60;;
77164;SDS011;66140;50.280;18.660;2023-04-16T14:19:10;7.03;;;4.30;;
77164;SDS011;66140;50.280;18.660;2023-04-16T14:21:38;4.55;;;3.63;;
77164;SDS011;66140;50.280;18.660;2023-04-16T14:24:04;5.75;;;4.10;;
77164;SDS011;66140;50.280;18.660;2023-04-16T14:26:30;5.10;;;3.85;;
77164;SDS011;66140;50.280;18.660;2023-04-16T14:28:55;4.95;;;4.03;;
77164;SDS011;66140;50.280;18.660;2023-04-16T14:31:20;6.75;;;4.53;;
77164;SDS011;66140;50.280;18.660;2023-04-16T14:33:46;7.22;;;4.10;;
77164;SDS011;66140;50.280;18.660;2023-04-16T14:36:11;6.97;;;5.07;;
77164;SDS011;66140;50.280;18.660;2023-04-16T14:38:37;5.72;;;4.57;;
77164;SDS011;66140;50.280;18.660;2023-04-16T14:41:02;5.88;;;4.47;;
77164;SDS011;66140;50.280;18.660;2023-04-16T14:43:28;5.18;;;4.07;;
77164;SDS011;66140;50.280;18.660;2023-04-16T14:45:53;6.63;;;5.03;;
77164;SDS011;66140;50.280;18.660;2023-04-16T14:48:22;7.80;;;4.18;;
77164;SDS011;66140;50.280;18.660;2023-04-16T14:50:47;6.30;;;4.30;;
77164;SDS011;66140;50.280;18.660;2023-04-16T14:56:20;5.22;;;3.85;;
77164;SDS011;66140;50.280;18.660;2023-04-16T14:58:54;5.63;;;3.58;;
77164;SDS011;66140;50.280;18.660;2023-04-16T15:01:23;7.43;;;3.83;;
77164;SDS011;66140;50.280;18.660;2023-04-16T15:03:48;5.85;;;4.18;;
77164;SDS011;66140;50.280;18.660;2023-04-16T15:06:14;5.97;;;4.03;;
77164;SDS011;66140;50.280;18.660;2023-04-16T15:08:43;9.63;;;5.25;;
77164;SDS011;66140;50.280;18.660;2023-04-16T15:11:08;6.10;;;4.70;;
77164;SDS011;66140;50.280;18.660;2023-04-16T15:13:34;7.22;;;5.15;;
77164;SDS011;66140;50.280;18.660;2023-04-16T15:16:02;7.03;;;4.60;;
77164;SDS011;66140;50.280;18.660;2023-04-16T15:18:31;6.25;;;4.38;;
77164;SDS011;66140;50.280;18.660;2023-04-16T15:20:57;7.07;;;4.75;;
77164;SDS011;66140;50.280;18.660;2023-04-16T15:23:25;8.07;;;4.70;;
77164;SDS011;66140;50.280;18.660;2023-04-16T15:25:50;7.22;;;4.72;;
77164;SDS011;66140;50.280;18.660;2023-04-16T15:28:16;7.57;;;4.90;;
77164;SDS011;66140;50.280;18.660;2023-04-16T15:30:41;6.88;;;4.90;;
77164;SDS011;66140;50.280;18.660;2023-04-16T15:33:10;7.43;;;4.70;;
77164;SDS011;66140;50.280;18.660;2023-04-16T15:35:35;7.20;;;4.40;;
77164;SDS011;66140;50.280;18.660;2023-04-16T15:38:05;6.03;;;4.22;;
77164;SDS011;66140;50.280;18.660;2023-04-16T15:40:33;6.35;;;4.45;;
77164;SDS011;66140;50.280;18.660;2023-04-16T15:43:00;7.38;;;4.07;;
77164;SDS011;66140;50.280;18.660;2023-04-16T15:45:25;6.13;;;4.47;;
77164;SDS011;66140;50.280;18.660;2023-04-16T15:47:51;10.35;;;6.07;;
77164;SDS011;66140;50.280;18.660;2023-04-16T15:50:19;6.75;;;4.38;;
77164;SDS011;66140;50.280;18.660;2023-04-16T15:52:45;6.07;;;4.53;;
77164;SDS011;66140;50.280;18.660;2023-04-16T15:55:11;5.00;;;3.95;;
77164;SDS011;66140;50.280;18.660;2023-04-16T15:57:39;6.50;;;4.47;;
77164;SDS011;66140;50.280;18.660;2023-04-16T16:00:12;6.28;;;4.03;;
77164;SDS011;66140;50.280;18.660;2023-04-16T16:02:44;8.45;;;5.10;;
77164;SDS011;66140;50.280;18.660;2023-04-16T16:05:11;7.57;;;4.57;;
77164;SDS011;66140;50.280;18.660;2023-04-16T16:07:38;7.22;;;4.68;;
77164;SDS011;66140;50.280;18.660;2023-04-16T16:10:06;6.65;;;4.60;;
77164;SDS011;66140;50.280;18.660;2023-04-16T16:12:33;6.45;;;4.30;;
77164;SDS011;66140;50.280;18.660;2023-04-16T16:14:58;7.28;;;5.10;;
77164;SDS011;66140;50.280;18.660;2023-04-16T16:17:28;7.03;;;4.90;;
77164;SDS011;66140;50.280;18.660;2023-04-16T16:19:54;7.38;;;4.88;;
77164;SDS011;66140;50.280;18.660;2023-04-16T16:22:21;10.85;;;7.40;;
77164;SDS011;66140;50.280;18.660;2023-04-16T16:24:48;7.90;;;4.90;;
77164;SDS011;66140;50.280;18.660;2023-04-16T16:27:17;6.80;;;4.90;;
77164;SDS011;66140;50.280;18.660;2023-04-16T16:29:43;9.27;;;5.07;;
77164;SDS011;66140;50.280;18.660;2023-04-16T16:32:09;10.60;;;5.05;;
77164;SDS011;66140;50.280;18.660;2023-04-16T16:34:35;8.50;;;4.85;;
77164;SDS011;66140;50.280;18.660;2023-04-16T16:37:01;9.15;;;4.43;;
77164;SDS011;66140;50.280;18.660;2023-04-16T16:39:27;7.43;;;4.03;;
77164;SDS011;66140;50.280;18.660;2023-04-16T16:41:52;5.97;;;3.67;;
77164;SDS011;66140;50.280;18.660;2023-04-16T16:44:21;6.20;;;4.28;;
77164;SDS011;66140;50.280;18.660;2023-04-16T16:46:47;7.40;;;4.25;;
77164;SDS011;66140;50.280;18.660;2023-04-16T16:49:13;9.40;;;5.07;;
77164;SDS011;66140;50.280;18.660;2023-04-16T16:51:39;8.07;;;4.93;;
77164;SDS011;66140;50.280;18.660;2023-04-16T16:54:06;9.82;;;6.05;;
77164;SDS011;66140;50.280;18.660;2023-04-16T16:56:31;8.65;;;5.40;;
77164;SDS011;66140;50.280;18.660;2023-04-16T16:58:57;9.25;;;6.28;;
77164;SDS011;66140;50.280;18.660;2023-04-16T17:01:30;9.00;;;5.38;;
77164;SDS011;66140;50.280;18.660;2023-04-16T17:03:56;10.05;;;6.30;;
77164;SDS011;66140;50.280;18.660;2023-04-16T17:06:22;9.50;;;6.78;;
77164;SDS011;66140;50.280;18.660;2023-04-16T17:08:50;9.50;;;5.53;;
77164;SDS011;66140;50.280;18.660;2023-04-16T17:11:18;10.35;;;5.47;;
77164;SDS011;66140;50.280;18.660;2023-04-16T17:13:45;11.05;;;6.57;;
77164;SDS011;66140;50.280;18.660;2023-04-16T17:16:28;10.30;;;5.55;;
77164;SDS011;66140;50.280;18.660;2023-04-16T17:18:53;9.57;;;5.93;;
77164;SDS011;66140;50.280;18.660;2023-04-16T17:21:19;12.13;;;6.05;;
77164;SDS011;66140;50.280;18.660;2023-04-16T17:23:45;7.70;;;5.30;;
77164;SDS011;66140;50.280;18.660;2023-04-16T17:26:10;10.13;;;5.57;;
77164;SDS011;66140;50.280;18.660;2023-04-16T17:28:38;9.93;;;5.88;;
77164;SDS011;66140;50.280;18.660;2023-04-16T17:31:05;10.77;;;6.35;;
77164;SDS011;66140;50.280;18.660;2023-04-16T17:33:32;8.32;;;5.57;;
77164;SDS011;66140;50.280;18.660;2023-04-16T17:35:57;8.93;;;5.72;;
77164;SDS011;66140;50.280;18.660;2023-04-16T17:38:23;9.20;;;6.00;;
77164;SDS011;66140;50.280;18.660;2023-04-16T17:40:48;9.10;;;5.50;;
77164;SDS011;66140;50.280;18.660;2023-04-16T17:43:14;11.10;;;6.03;;
77164;SDS011;66140;50.280;18.660;2023-04-16T17:45:39;9.65;;;5.30;;
77164;SDS011;66140;50.280;18.660;2023-04-16T17:48:05;9.70;;;6.13;;
77164;SDS011;66140;50.280;18.660;2023-04-16T17:50:33;8.82;;;5.68;;
77164;SDS011;66140;50.280;18.660;2023-04-16T17:53:14;9.15;;;5.78;;
77164;SDS011;66140;50.280;18.660;2023-04-16T17:55:48;9.60;;;5.80;;
77164;SDS011;66140;50.280;18.660;2023-04-16T17:58:14;10.13;;;6.30;;
77164;SDS011;66140;50.280;18.660;2023-04-16T18:00:40;9.15;;;5.95;;
77164;SDS011;66140;50.280;18.660;2023-04-16T18:03:06;11.90;;;6.72;;
77164;SDS011;66140;50.280;18.660;2023-04-16T18:05:35;10.32;;;6.07;;
77164;SDS011;66140;50.280;18.660;2023-04-16T18:08:00;16.77;;;10.30;;
77164;SDS011;66140;50.280;18.660;2023-04-16T18:10:26;16.20;;;9.60;;
77164;SDS011;66140;50.280;18.660;2023-04-16T18:12:55;24.08;;;12.43;;
77164;SDS011;66140;50.280;18.660;2023-04-16T18:15:20;19.98;;;11.35;;
77164;SDS011;66140;50.280;18.660;2023-04-16T18:17:46;13.55;;;8.02;;
77164;SDS011;66140;50.280;18.660;2023-04-16T18:20:11;15.43;;;8.32;;
77164;SDS011;66140;50.280;18.660;2023-04-16T18:22:40;13.20;;;8.52;;
77164;SDS011;66140;50.280;18.660;2023-04-16T18:25:06;14.45;;;8.02;;
77164;SDS011;66140;50.280;18.660;2023-04-16T18:27:32;14.60;;;8.05;;
77164;SDS011;66140;50.280;18.660;2023-04-16T18:29:57;13.38;;;8.10;;
77164;SDS011;66140;50.280;18.660;2023-04-16T18:32:22;12.43;;;8.02;;
77164;SDS011;66140;50.280;18.660;2023-04-16T18:34:48;17.88;;;10.00;;
77164;SDS011;66140;50.280;18.660;2023-04-16T18:37:13;49.38;;;26.90;;
77164;SDS011;66140;50.280;18.660;2023-04-16T18:39:39;29.67;;;15.88;;
77164;SDS011;66140;50.280;18.660;2023-04-16T18:42:05;19.00;;;11.60;;
77164;SDS011;66140;50.280;18.660;2023-04-16T18:44:31;15.73;;;9.13;;
77164;SDS011;66140;50.280;18.660;2023-04-16T18:46:57;14.30;;;8.80;;
77164;SDS011;66140;50.280;18.660;2023-04-16T18:49:22;12.77;;;8.70;;
77164;SDS011;66140;50.280;18.660;2023-04-16T18:51:48;16.63;;;9.27;;
77164;SDS011;66140;50.280;18.660;2023-04-16T18:54:13;14.52;;;8.98;;
77164;SDS011;66140;50.280;18.660;2023-04-16T18:56:39;14.88;;;9.68;;
77164;SDS011;66140;50.280;18.660;2023-04-16T18:59:04;13.47;;;9.37;;
77164;SDS011;66140;50.280;18.660;2023-04-16T19:01:30;18.48;;;10.55;;
77164;SDS011;66140;50.280;18.660;2023-04-16T19:03:55;14.50;;;8.40;;
77164;SDS011;66140;50.280;18.660;2023-04-16T19:06:21;14.82;;;8.52;;
77164;SDS011;66140;50.280;18.660;2023-04-16T19:08:46;15.35;;;9.35;;
77164;SDS011;66140;50.280;18.660;2023-04-16T19:11:14;16.45;;;8.90;;
77164;SDS011;66140;50.280;18.660;2023-04-16T19:13:40;17.88;;;9.50;;
77164;SDS011;66140;50.280;18.660;2023-04-16T19:16:08;18.55;;;10.20;;
77164;SDS011;66140;50.280;18.660;2023-04-16T19:18:35;18.73;;;9.02;;
77164;SDS011;66140;50.280;18.660;2023-04-16T19:21:01;13.95;;;8.13;;
77164;SDS011;66140;50.280;18.660;2023-04-16T19:23:27;12.52;;;7.85;;
77164;SDS011;66140;50.280;18.660;2023-04-16T19:25:52;12.65;;;8.13;;
77164;SDS011;66140;50.280;18.660;2023-04-16T19:28:20;14.93;;;7.95;;
77164;SDS011;66140;50.280;18.660;2023-04-16T19:30:48;13.73;;;8.50;;
77164;SDS011;66140;50.280;18.660;2023-04-16T19:33:14;12.00;;;8.45;;
77164;SDS011;66140;50.280;18.660;2023-04-16T19:35:43;9.27;;;6.35;;
77164;SDS011;66140;50.280;18.660;2023-04-16T19:38:09;11.98;;;7.03;;
77164;SDS011;66140;50.280;18.660;2023-04-16T19:40:35;13.93;;;7.03;;